ブリスベン の空港の天気 - METARとTAF

ブリスベン空港 ( YBBN / BNE ) - オーストラリア クイーンズランド州ブリスベン
飛行場実況気象(Metar)
観測時間08/13 18:00 AEST (08/13 08:00 UTC)
風向・風速北北西 3m/s
視程10km以上
天気現象
少しの雲 雲底高度 760m
気温14℃
湿度94%
気圧1015hPa
METARYBBN 130800Z 33005KT 9999 FEW025 14/13 Q1015
過去の天気等 Google飛行場航空写真 Wunderground天気予報

過去48時間のMETAR

飛行場予報(TAF)
発表時間: 8/13 15:06 AEST (8/13 05:06 UTC)
予報対象時間: 13日16時 AEST ~ 14日22時 AEST
風向・風速西北西 4m/s
視程10km以上
天気現象弱いしゅう雨
少しの雲 雲底高度 240m
全天の8割程度の雲 雲底高度 1520m
13日19時 AEST から
風向・風速西 3m/s
視程10km以上
なし
14日1時 AEST から
風向・風速南西 4m/s
視程10km以上
少しの雲 雲底高度 150m
14日9時 AEST から
風向・風速西 7m/s
視程10km以上
なし
14日2時 AEST から 確率 30% で
視程500m
天気現象
全天の8割程度の雲 雲底高度 30m
TAF AMD YBBN 130506Z 1306/1412 30008KT 9999 -SHRA FEW008 BKN050
FM130900 27006KT CAVOK
FM131500 22007KT 9999 FEW005
FM132300 27013KT CAVOK
PROB30 1316/1322 0500 FG BKN001